CDT,Max TemperatureF,Mean TemperatureF,Min TemperatureF,Max Dew PointF,MeanDew PointF,Min DewpointF,Max Humidity, Mean Humidity, Min Humidity, Max Sea Level PressureIn, Mean Sea Level PressureIn, Min Sea Level PressureIn, Max VisibilityMiles, Mean VisibilityMiles, Min VisibilityMiles, Max Wind SpeedMPH, Mean Wind SpeedMPH, Max Gust SpeedMPH,PrecipitationIn, CloudCover, Events, WindDirDegrees
2013-8-1,87,82,78,77,76,74,93,81,67,30.02,29.98,29.93,10,10,10,13,7,16,0.00,1,,164
2013-8-2,88,82,78,77,76,75,93,81,67,29.99,29.95,29.91,10,10,10,13,7,,0.00,0,,160
2013-8-3,88,84,79,78,77,73,93,81,71,30.02,29.98,29.95,10,10,10,13,8,18,0.00,0,,151
2013-8-4,89,84,80,79,78,76,91,82,70,30.06,30.02,29.97,10,10,10,16,9,22,0.00,0,,159
2013-8-5,88,84,80,78,78,77,91,81,69,30.04,29.99,29.93,10,10,7,18,12,24,0.00,0,Rain,166
2013-8-6,89,84,80,78,77,77,91,82,70,29.98,29.92,29.86,10,9,7,18,13,24,0.00,1,,167
2013-8-7,88,83,79,78,77,76,93,84,71,29.94,29.90,29.84,7,7,5,16,12,23,0.00,0,,164
2013-8-8,88,83,78,78,77,76,94,85,72,29.92,29.88,29.83,10,8,5,14,9,18,0.00,1,,155
2013-8-9,88,82,77,79,76,73,94,82,64,29.96,29.91,29.88,10,9,7,12,5,,0.00,0,,134
2013-8-10,89,84,80,79,78,72,93,84,57,30.01,29.97,29.93,10,10,10,15,6,20,0.00,0,Thunderstorm,74
2013-8-11,88,84,79,79,76,73,94,80,68,30.04,30.00,29.97,10,10,7,16,5,23,0.00,1,,110
2013-8-12,88,83,79,78,77,75,90,80,71,30.08,30.02,29.97,10,10,10,13,8,16,0.00,0,,145
2013-8-13,88,84,80,78,78,77,90,81,69,30.04,29.99,29.91,10,10,10,14,9,20,0.00,0,,158
2013-8-14,89,84,80,78,77,75,90,80,64,29.99,29.94,29.89,10,10,10,17,12,24,0.00,1,,172
2013-8-15,89,84,79,77,76,75,90,79,64,29.99,29.94,29.91,10,10,10,15,10,23,0.00,2,,155
2013-8-16,89,82,75,77,76,72,91,78,63,30.01,29.94,29.88,10,10,5,25,7,34,0.02,3,Rain-Thunderstorm,142
2013-8-17,87,82,76,75,73,70,91,75,59,30.00,29.95,29.91,10,10,10,16,9,21,0.00,0,,75
2013-8-18,88,82,77,75,71,67,86,68,50,30.03,29.98,29.94,10,10,10,17,8,22,0.00,0,,98
2013-8-19,89,84,79,74,72,71,80,70,56,30.03,29.96,29.92,10,10,10,15,7,18,0.00,1,,90
2013-8-20,82,77,72,75,73,70,93,81,74,30.04,29.97,29.92,10,9,1,16,8,23,1.60,3,Rain-Thunderstorm,128
2013-8-21,89,82,76,77,76,69,87,76,65,30.04,30.00,29.98,10,10,5,14,9,18,0.08,2,Rain,120
2013-8-22,87,82,77,76,75,73,89,77,66,30.04,29.99,29.92,10,10,10,12,6,,0.00,2,Thunderstorm,99
2013-8-23,89,84,80,76,75,74,84,73,62,29.99,29.94,29.89,10,10,10,14,7,18,0.00,2,,94
2013-8-24,89,84,80,78,76,71,86,76,60,30.00,29.95,29.92,10,10,7,20,9,24,0.00,3,Rain-Thunderstorm,75
2013-8-25,89,83,78,77,75,74,89,76,63,30.04,29.99,29.97,10,10,7,16,9,21,0.00,2,Thunderstorm,82
2013-8-26,82,78,73,76,74,72,96,87,75,30.09,30.02,29.98,10,9,0,13,7,28,2.53,5,Rain-Thunderstorm,102
2013-8-27,89,84,80,78,76,73,87,76,61,30.08,30.03,29.99,10,9,7,14,11,20,0.00,4,,122
2013-8-28,88,83,78,76,75,72,85,75,63,30.08,30.03,29.99,10,10,10,16,7,23,0.00,3,,103
2013-8-29,89,84,80,75,74,72,83,72,58,30.06,30.02,29.97,10,10,10,10,7,,0.00,1,,146
2013-8-30,89,84,80,76,74,72,86,72,59,30.03,29.97,29.91,10,10,10,13,8,16,0.00,1,,176
2013-8-31,88,84,79,75,74,73,88,72,61,29.96,29.90,29.85,10,10,10,13,8,16,0.00,2,,178